Time,TemperatureF,DewpointF,PressureIn,WindDirection,WindDirectionDegrees,WindSpeedMPH,WindSpeedGustMPH,Humidity,HourlyPrecipIn,Conditions,Clouds,dailyrainin,SolarRadiationWatts/m^2,SoftwareType,DateUTC
2013-04-12 00:01:00,33.3,28.7,30.18,SSE,155,0.0,1.0,83,0.00,,,0.00,0,LWC V2.00 B727,2013-04-12 06:01:00,
2013-04-12 00:06:00,33.2,28.6,30.18,SSE,155,0.0,0.0,83,0.00,,,0.00,0,LWC V2.00 B727,2013-04-12 06:06:00,
2013-04-12 00:11:00,33.0,28.4,30.18,SSE,155,0.0,0.0,83,0.00,,,0.00,0,LWC V2.00 B727,2013-04-12 06:11:00,
2013-04-12 00:16:00,32.8,28.2,30.18,SSE,155,0.0,0.0,83,0.00,,,0.00,0,LWC V2.00 B727,2013-04-12 06:16:00,
2013-04-12 00:21:00,32.6,28.0,30.18,SSE,155,0.0,1.0,83,0.00,,,0.00,0,LWC V2.00 B727,2013-04-12 06:21:00,
2013-04-12 00:26:00,32.4,27.8,30.18,SSE,155,1.0,2.0,83,0.00,,,0.00,0,LWC V2.00 B727,2013-04-12 06:26:00,
2013-04-12 00:31:00,32.4,28.1,30.18,SSE,155,0.0,2.0,84,0.00,,,0.00,0,LWC V2.00 B727,2013-04-12 06:31:00,
2013-04-12 00:36:00,32.4,28.1,30.18,SSE,155,1.0,2.0,84,0.00,,,0.00,0,LWC V2.00 B727,2013-04-12 06:36:00,
2013-04-12 00:41:00,32.3,28.0,30.19,SSE,155,2.0,2.0,84,0.00,,,0.00,0,LWC V2.00 B727,2013-04-12 06:41:00,
2013-04-12 00:46:00,32.4,28.4,30.19,SSE,155,0.0,1.0,85,0.00,,,0.00,0,LWC V2.00 B727,2013-04-12 06:46:00,
2013-04-12 00:51:00,32.6,28.6,30.19,SSE,155,0.0,3.0,85,0.00,,,0.00,0,LWC V2.00 B727,2013-04-12 06:51:00,
2013-04-12 00:56:00,33.0,29.3,30.19,SSE,155,0.0,3.0,86,0.00,,,0.00,0,LWC V2.00 B727,2013-04-12 06:56:00,
2013-04-12 01:01:00,33.3,29.3,30.19,SSE,155,1.0,2.0,85,0.00,,,0.00,0,LWC V2.00 B727,2013-04-12 07:01:00,
2013-04-12 01:06:00,33.8,29.8,30.19,SSE,155,0.0,2.0,85,0.00,,,0.00,0,LWC V2.00 B727,2013-04-12 07:06:00,
2013-04-12 01:11:00,34.1,30.1,30.19,SSE,150,3.0,3.0,85,0.00,,,0.00,0,LWC V2.00 B727,2013-04-12 07:11:00,
2013-04-12 01:16:00,34.4,30.1,30.18,SSE,150,1.0,3.0,84,0.00,,,0.00,0,LWC V2.00 B727,2013-04-12 07:16:00,
2013-04-12 01:21:00,34.4,30.1,30.19,SSE,150,3.0,3.0,84,0.00,,,0.00,0,LWC V2.00 B727,2013-04-12 07:21:00,
2013-04-12 01:26:00,34.7,30.4,30.18,SSE,152,1.0,2.0,84,0.00,,,0.00,0,LWC V2.00 B727,2013-04-12 07:26:00,
2013-04-12 01:31:00,35.0,30.4,30.19,SSE,153,0.0,2.0,83,0.00,,,0.00,0,LWC V2.00 B727,2013-04-12 07:31:00,
2013-04-12 01:36:00,35.1,30.5,30.19,SSE,152,0.0,1.0,83,0.00,,,0.00,0,LWC V2.00 B727,2013-04-12 07:36:00,
2013-04-12 01:41:00,35.2,30.6,30.18,SSE,153,0.0,1.0,83,0.00,,,0.00,0,LWC V2.00 B727,2013-04-12 07:41:00,
2013-04-12 01:46:00,35.3,30.4,30.18,SSE,153,0.0,2.0,82,0.00,,,0.00,0,LWC V2.00 B727,2013-04-12 07:46:00,
2013-04-12 01:51:00,35.3,30.4,30.17,SSE,153,0.0,0.0,82,0.00,,,0.00,0,LWC V2.00 B727,2013-04-12 07:51:00,
2013-04-12 01:56:00,35.3,30.4,30.17,SSE,152,0.0,0.0,82,0.00,,,0.00,0,LWC V2.00 B727,2013-04-12 07:56:00,
2013-04-12 02:01:00,35.3,30.1,30.17,SSE,152,0.0,0.0,81,0.00,,,0.00,0,LWC V2.00 B727,2013-04-12 08:01:00,
2013-04-12 02:06:00,35.3,29.8,30.17,SSE,153,0.0,1.0,80,0.00,,,0.00,0,LWC V2.00 B727,2013-04-12 08:06:00,
2013-04-12 02:11:00,35.2,29.7,30.17,SSE,153,0.0,0.0,80,0.00,,,0.00,0,LWC V2.00 B727,2013-04-12 08:11:00,
2013-04-12 02:16:00,35.1,29.6,30.17,SSE,152,0.0,1.0,80,0.00,,,0.00,0,LWC V2.00 B727,2013-04-12 08:16:00,
2013-04-12 02:21:00,34.9,29.4,30.17,SSE,152,0.0,1.0,80,0.00,,,0.00,0,LWC V2.00 B727,2013-04-12 08:21:00,
2013-04-12 02:26:00,34.8,29.0,30.17,SSE,153,0.0,0.0,79,0.00,,,0.00,0,LWC V2.00 B727,2013-04-12 08:26:00,
2013-04-12 02:31:00,34.6,28.8,30.17,SSE,152,0.0,0.0,79,0.00,,,0.00,0,LWC V2.00 B727,2013-04-12 08:31:00,
2013-04-12 02:36:00,34.4,28.6,30.17,SSE,152,0.0,0.0,79,0.00,,,0.00,0,LWC V2.00 B727,2013-04-12 08:36:00,
2013-04-12 02:41:00,34.4,28.9,30.17,SSE,152,0.0,1.0,80,0.00,,,0.00,0,LWC V2.00 B727,2013-04-12 08:41:00,
2013-04-12 02:46:00,34.3,29.1,30.17,SSE,153,0.0,2.0,81,0.00,,,0.00,0,LWC V2.00 B727,2013-04-12 08:46:00,
2013-04-12 02:51:00,34.2,29.3,30.17,SSE,153,0.0,1.0,82,0.00,,,0.00,0,LWC V2.00 B727,2013-04-12 08:51:00,
2013-04-12 02:56:00,34.2,29.3,30.17,SSE,153,0.0,0.0,82,0.00,,,0.00,0,LWC V2.00 B727,2013-04-12 08:56:00,
2013-04-12 03:01:00,34.2,29.3,30.17,SSE,153,0.0,0.0,82,0.00,,,0.00,0,LWC V2.00 B727,2013-04-12 09:01:00,
2013-04-12 03:06:00,34.2,29.3,30.17,SSE,153,0.0,0.0,82,0.00,,,0.00,0,LWC V2.00 B727,2013-04-12 09:06:00,
2013-04-12 03:11:00,34.3,29.4,30.16,SSE,152,0.0,0.0,82,0.00,,,0.00,0,LWC V2.00 B727,2013-04-12 09:11:00,
2013-04-12 03:16:00,34.4,29.2,30.16,SSE,153,0.0,0.0,81,0.00,,,0.00,0,LWC V2.00 B727,2013-04-12 09:16:00,
2013-04-12 03:21:00,34.4,28.9,30.16,SSE,152,0.0,0.0,80,0.00,,,0.00,0,LWC V2.00 B727,2013-04-12 09:21:00,
2013-04-12 03:26:00,34.4,28.9,30.16,SSE,153,0.0,0.0,80,0.00,,,0.00,0,LWC V2.00 B727,2013-04-12 09:26:00,
2013-04-12 03:31:00,34.4,28.9,30.16,SSE,153,0.0,1.0,80,0.00,,,0.00,0,LWC V2.00 B727,2013-04-12 09:31:00,
2013-04-12 03:36:00,34.4,28.6,30.16,SSE,153,0.0,0.0,79,0.00,,,0.00,0,LWC V2.00 B727,2013-04-12 09:36:00,
2013-04-12 03:41:00,34.2,27.8,30.16,SSE,152,0.0,0.0,77,0.00,,,0.00,0,LWC V2.00 B727,2013-04-12 09:41:00,
2013-04-12 03:46:00,33.8,27.7,30.15,SSE,152,0.0,0.0,78,0.00,,,0.00,0,LWC V2.00 B727,2013-04-12 09:46:00,
2013-04-12 03:51:00,33.5,27.4,30.16,SSE,152,0.0,0.0,78,0.00,,,0.00,0,LWC V2.00 B727,2013-04-12 09:51:00,
2013-04-12 03:56:00,33.3,27.2,30.15,SSE,152,0.0,0.0,78,0.00,,,0.00,0,LWC V2.00 B727,2013-04-12 09:56:00,
2013-04-12 04:01:00,33.0,27.2,30.15,SSE,153,0.0,0.0,79,0.00,,,0.00,0,LWC V2.00 B727,2013-04-12 10:01:00,
2013-04-12 04:06:00,32.7,26.9,30.15,SSE,153,0.0,0.0,79,0.00,,,0.00,0,LWC V2.00 B727,2013-04-12 10:06:00,
2013-04-12 04:11:00,32.4,26.9,30.15,SSE,152,0.0,0.0,80,0.00,,,0.00,0,LWC V2.00 B727,2013-04-12 10:11:00,
2013-04-12 04:16:00,32.2,26.7,30.15,SSE,153,0.0,0.0,80,0.00,,,0.00,0,LWC V2.00 B727,2013-04-12 10:16:00,
2013-04-12 04:21:00,32.0,26.5,30.15,SSE,153,0.0,0.0,80,0.00,,,0.00,0,LWC V2.00 B727,2013-04-12 10:21:00,
2013-04-12 04:26:00,31.7,26.2,30.16,SSE,153,0.0,0.0,80,0.00,,,0.00,0,LWC V2.00 B727,2013-04-12 10:26:00,
2013-04-12 04:31:00,31.5,26.1,30.16,SSE,152,0.0,0.0,80,0.00,,,0.00,0,LWC V2.00 B727,2013-04-12 10:31:00,
2013-04-12 04:36:00,31.2,25.8,30.16,SSE,153,0.0,0.0,80,0.00,,,0.00,0,LWC V2.00 B727,2013-04-12 10:36:00,
2013-04-12 04:41:00,30.8,25.1,30.16,SSE,153,0.0,0.0,79,0.00,,,0.00,0,LWC V2.00 B727,2013-04-12 10:41:00,
2013-04-12 04:46:00,30.5,25.1,30.16,SSE,153,0.0,0.0,80,0.00,,,0.00,0,LWC V2.00 B727,2013-04-12 10:46:00,
2013-04-12 04:51:00,30.2,24.8,30.16,SSE,152,0.0,0.0,80,0.00,,,0.00,0,LWC V2.00 B727,2013-04-12 10:51:00,
2013-04-12 04:56:00,30.0,24.9,30.16,SSE,153,0.0,0.0,81,0.00,,,0.00,0,LWC V2.00 B727,2013-04-12 10:56:00,
2013-04-12 05:01:00,29.9,25.4,30.16,SSE,153,0.0,0.0,83,0.00,,,0.00,0,LWC V2.00 B727,2013-04-12 11:01:00,
2013-04-12 05:06:00,29.9,25.7,30.16,SSE,152,0.0,1.0,84,0.00,,,0.00,0,LWC V2.00 B727,2013-04-12 11:06:00,
2013-04-12 05:11:00,30.3,26.3,30.16,SSE,152,0.0,0.0,85,0.00,,,0.00,0,LWC V2.00 B727,2013-04-12 11:11:00,
2013-04-12 05:16:00,30.5,26.5,30.16,SSE,153,0.0,0.0,85,0.00,,,0.00,0,LWC V2.00 B727,2013-04-12 11:16:00,
2013-04-12 05:21:00,30.7,27.0,30.16,SSE,153,0.0,0.0,86,0.00,,,0.00,0,LWC V2.00 B727,2013-04-12 11:21:00,
2013-04-12 05:26:00,30.9,27.2,30.16,SSE,153,0.0,1.0,86,0.00,,,0.00,0,LWC V2.00 B727,2013-04-12 11:26:00,
2013-04-12 05:31:00,31.1,27.4,30.16,SSE,153,0.0,0.0,86,0.00,,,0.00,0,LWC V2.00 B727,2013-04-12 11:31:00,
2013-04-12 05:36:00,31.2,27.5,30.16,SSE,153,0.0,0.0,86,0.00,,,0.00,0,LWC V2.00 B727,2013-04-12 11:36:00,
2013-04-12 05:41:00,31.3,27.6,30.16,SSE,152,0.0,0.0,86,0.00,,,0.00,0,LWC V2.00 B727,2013-04-12 11:41:00,
2013-04-12 05:46:00,31.4,27.7,30.16,SSE,153,0.0,0.0,86,0.00,,,0.00,0,LWC V2.00 B727,2013-04-12 11:46:00,
2013-04-12 05:51:00,31.7,28.3,30.16,SSE,152,0.0,0.0,87,0.00,,,0.00,0,LWC V2.00 B727,2013-04-12 11:51:00,
2013-04-12 05:56:00,31.9,28.2,30.16,SSE,153,0.0,0.0,86,0.00,,,0.00,0,LWC V2.00 B727,2013-04-12 11:56:00,
2013-04-12 06:01:00,31.9,28.2,30.16,SSE,153,0.0,0.0,86,0.00,,,0.00,0,LWC V2.00 B727,2013-04-12 12:01:00,
2013-04-12 06:06:00,32.0,28.3,30.15,SSE,153,0.0,0.0,86,0.00,,,0.00,0,LWC V2.00 B727,2013-04-12 12:06:00,
2013-04-12 06:11:00,32.1,28.4,30.15,SSE,153,0.0,1.0,86,0.00,,,0.00,0,LWC V2.00 B727,2013-04-12 12:11:00,
2013-04-12 06:16:00,32.4,29.0,30.15,SSE,152,0.0,1.0,87,0.00,,,0.00,0,LWC V2.00 B727,2013-04-12 12:16:00,
2013-04-12 06:21:00,32.9,29.2,30.15,SSE,152,0.0,1.0,86,0.00,,,0.00,0,LWC V2.00 B727,2013-04-12 12:21:00,
2013-04-12 06:26:00,33.3,29.3,30.15,SSE,153,0.0,0.0,85,0.00,,,0.00,0,LWC V2.00 B727,2013-04-12 12:26:00,
2013-04-12 06:31:00,33.5,29.5,30.15,SSE,153,0.0,0.0,85,0.00,,,0.00,0,LWC V2.00 B727,2013-04-12 12:31:00,
2013-04-12 06:36:00,33.6,29.6,30.15,SSE,152,0.0,0.0,85,0.00,,,0.00,0,LWC V2.00 B727,2013-04-12 12:36:00,
2013-04-12 06:41:00,33.7,29.4,30.15,SSE,153,0.0,0.0,84,0.00,,,0.00,7,LWC V2.00 B727,2013-04-12 12:41:00,
2013-04-12 06:46:00,33.8,29.5,30.15,SSE,153,0.0,0.0,84,0.00,,,0.00,12,LWC V2.00 B727,2013-04-12 12:46:00,
2013-04-12 06:51:00,33.8,29.2,30.15,SSE,152,0.0,0.0,83,0.00,,,0.00,16,LWC V2.00 B727,2013-04-12 12:51:00,
2013-04-12 06:56:00,33.8,29.2,30.15,SSE,152,0.0,0.0,83,0.00,,,0.00,18,LWC V2.00 B727,2013-04-12 12:56:00,
2013-04-12 07:01:00,33.8,29.2,30.15,SSE,153,0.0,0.0,83,0.00,,,0.00,21,LWC V2.00 B727,2013-04-12 13:01:00,
2013-04-12 07:06:00,33.6,28.7,30.16,SSE,153,0.0,0.0,82,0.00,,,0.00,30,LWC V2.00 B727,2013-04-12 13:06:00,
2013-04-12 07:11:00,33.4,28.5,30.16,SSE,152,0.0,0.0,82,0.00,,,0.00,47,LWC V2.00 B727,2013-04-12 13:11:00,
2013-04-12 07:16:00,33.3,28.4,30.16,SSE,153,0.0,0.0,82,0.00,,,0.00,77,LWC V2.00 B727,2013-04-12 13:16:00,
2013-04-12 07:21:00,33.3,28.7,30.16,SSE,153,0.0,0.0,83,0.00,,,0.00,90,LWC V2.00 B727,2013-04-12 13:21:00,
2013-04-12 07:26:00,33.4,28.8,30.16,SSE,153,0.0,0.0,83,0.00,,,0.00,116,LWC V2.00 B727,2013-04-12 13:26:00,
2013-04-12 07:31:00,33.6,29.3,30.16,SSE,152,0.0,2.0,84,0.00,,,0.00,128,LWC V2.00 B727,2013-04-12 13:31:00,
2013-04-12 07:36:00,34.0,29.7,30.16,SSE,153,0.0,0.0,84,0.00,,,0.00,97,LWC V2.00 B727,2013-04-12 13:36:00,
2013-04-12 07:41:00,34.4,30.1,30.16,SSE,153,0.0,0.0,84,0.00,,,0.00,160,LWC V2.00 B727,2013-04-12 13:41:00,
2013-04-12 07:46:00,34.6,30.3,30.16,SSE,153,0.0,0.0,84,0.00,,,0.00,121,LWC V2.00 B727,2013-04-12 13:46:00,
2013-04-12 07:51:00,35.1,31.1,30.16,SSE,153,0.0,0.0,85,0.00,,,0.00,169,LWC V2.00 B727,2013-04-12 13:51:00,
2013-04-12 07:56:00,35.7,31.6,30.16,SSE,152,0.0,0.0,85,0.00,,,0.00,241,LWC V2.00 B727,2013-04-12 13:56:00,
2013-04-12 08:01:00,36.4,32.0,30.16,SSE,153,0.0,0.0,84,0.00,,,0.00,262,LWC V2.00 B727,2013-04-12 14:01:00,
2013-04-12 08:06:00,37.1,32.4,30.16,SSE,152,0.0,0.0,83,0.00,,,0.00,281,LWC V2.00 B727,2013-04-12 14:06:00,
2013-04-12 08:11:00,37.9,32.6,30.15,SSE,153,2.0,2.0,81,0.00,,,0.00,302,LWC V2.00 B727,2013-04-12 14:11:00,
2013-04-12 08:16:00,38.9,32.0,30.15,WSW,246,0.0,3.0,76,0.00,,,0.00,322,LWC V2.00 B727,2013-04-12 14:16:00,
2013-04-12 08:21:00,39.8,31.9,30.15,WSW,245,2.0,3.0,73,0.00,,,0.00,343,LWC V2.00 B727,2013-04-12 14:21:00,
2013-04-12 08:26:00,40.8,32.5,30.15,WSW,244,1.0,2.0,72,0.00,,,0.00,364,LWC V2.00 B727,2013-04-12 14:26:00,
2013-04-12 08:31:00,41.6,32.2,30.15,SW,230,2.0,3.0,69,0.00,,,0.00,381,LWC V2.00 B727,2013-04-12 14:31:00,
2013-04-12 08:36:00,42.4,32.6,30.15,SW,232,2.0,3.0,68,0.00,,,0.00,404,LWC V2.00 B727,2013-04-12 14:36:00,
2013-04-12 08:41:00,43.2,33.0,30.16,SW,232,0.0,2.0,67,0.00,,,0.00,420,LWC V2.00 B727,2013-04-12 14:41:00,
2013-04-12 08:46:00,43.9,33.3,30.15,WSW,241,1.0,5.0,66,0.00,,,0.00,459,LWC V2.00 B727,2013-04-12 14:46:00,
2013-04-12 08:51:00,44.5,32.7,30.15,WSW,244,3.0,5.0,63,0.00,,,0.00,543,LWC V2.00 B727,2013-04-12 14:51:00,
2013-04-12 08:56:00,45.0,32.4,30.15,WSW,240,6.0,6.0,61,0.00,,,0.00,552,LWC V2.00 B727,2013-04-12 14:56:00,
2013-04-12 09:01:00,45.2,32.6,30.15,SW,223,7.0,7.0,61,0.00,,,0.00,561,LWC V2.00 B727,2013-04-12 15:01:00,
2013-04-12 09:06:00,45.7,31.3,30.15,WSW,244,3.0,8.0,57,0.00,,,0.00,654,LWC V2.00 B727,2013-04-12 15:06:00,
2013-04-12 09:11:00,46.1,31.7,30.15,WSW,239,5.0,11.0,57,0.00,,,0.00,146,LWC V2.00 B727,2013-04-12 15:11:00,
2013-04-12 09:16:00,45.8,30.6,30.15,WSW,248,2.0,6.0,55,0.00,,,0.00,190,LWC V2.00 B727,2013-04-12 15:16:00,
2013-04-12 09:22:00,45.5,30.7,30.16,WSW,244,3.0,5.0,56,0.00,,,0.00,301,LWC V2.00 B727,2013-04-12 15:22:00,
2013-04-12 09:27:00,45.4,31.5,30.16,SW,232,4.0,4.0,58,0.00,,,0.00,192,LWC V2.00 B727,2013-04-12 15:27:00,
2013-04-12 09:32:00,45.2,30.9,30.16,WSW,242,2.0,8.0,57,0.00,,,0.00,153,LWC V2.00 B727,2013-04-12 15:32:00,
2013-04-12 09:37:00,44.9,30.6,30.16,WSW,238,2.0,7.0,57,0.00,,,0.00,135,LWC V2.00 B727,2013-04-12 15:37:00,
2013-04-12 09:42:00,44.5,30.7,30.16,SW,232,5.0,6.0,58,0.00,,,0.00,181,LWC V2.00 B727,2013-04-12 15:42:00,
2013-04-12 09:47:00,44.3,31.3,30.16,SW,219,1.0,5.0,60,0.00,,,0.00,218,LWC V2.00 B727,2013-04-12 15:47:00,
2013-04-12 09:52:00,44.4,31.8,30.16,SW,227,3.0,3.0,61,0.00,,,0.00,250,LWC V2.00 B727,2013-04-12 15:52:00,
2013-04-12 09:57:00,45.1,31.2,30.16,WSW,253,2.0,8.0,58,0.00,,,0.00,831,LWC V2.00 B727,2013-04-12 15:57:00,
2013-04-12 10:02:00,45.4,31.5,30.16,SSW,206,7.0,8.0,58,0.00,,,0.00,211,LWC V2.00 B727,2013-04-12 16:02:00,
2013-04-12 10:07:00,45.6,30.8,30.16,SW,218,2.0,5.0,56,0.00,,,0.00,200,LWC V2.00 B727,2013-04-12 16:07:00,
2013-04-12 10:12:00,46.2,29.6,30.16,WSW,252,3.0,6.0,52,0.00,,,0.00,795,LWC V2.00 B727,2013-04-12 16:12:00,
2013-04-12 10:17:00,46.9,30.7,30.16,WSW,242,2.0,8.0,53,0.00,,,0.00,926,LWC V2.00 B727,2013-04-12 16:17:00,
2013-04-12 10:22:00,47.6,30.4,30.16,WSW,244,3.0,7.0,51,0.00,,,0.00,183,LWC V2.00 B727,2013-04-12 16:22:00,
2013-04-12 10:27:00,47.7,30.9,30.16,SSW,213,0.0,7.0,52,0.00,,,0.00,940,LWC V2.00 B727,2013-04-12 16:27:00,
2013-04-12 10:32:00,48.3,30.5,30.16,NNE,17,2.0,7.0,50,0.00,,,0.00,1020,LWC V2.00 B727,2013-04-12 16:32:00,
2013-04-12 10:37:00,48.6,30.8,30.16,NW,309,3.0,8.0,50,0.00,,,0.00,390,LWC V2.00 B727,2013-04-12 16:37:00,
2013-04-12 10:42:00,48.8,31.5,30.16,SSW,209,0.0,2.0,51,0.00,,,0.00,1183,LWC V2.00 B727,2013-04-12 16:42:00,
2013-04-12 10:47:00,49.3,31.5,30.16,North,0,3.0,8.0,50,0.00,,,0.00,264,LWC V2.00 B727,2013-04-12 16:47:00,
2013-04-12 10:52:00,49.4,31.0,30.16,NNW,329,4.0,6.0,49,0.00,,,0.00,209,LWC V2.00 B727,2013-04-12 16:52:00,
2013-04-12 10:57:00,48.9,31.1,30.16,WSW,257,1.0,4.0,50,0.00,,,0.00,294,LWC V2.00 B727,2013-04-12 16:57:00,
2013-04-12 11:02:00,48.7,30.4,30.16,West,279,2.0,5.0,49,0.00,,,0.00,269,LWC V2.00 B727,2013-04-12 17:02:00,
2013-04-12 11:07:00,48.6,29.8,30.15,North,11,7.0,10.0,48,0.00,,,0.00,223,LWC V2.00 B727,2013-04-12 17:07:00,
2013-04-12 11:12:00,47.7,27.9,30.15,North,351,4.0,9.0,46,0.00,,,0.00,257,LWC V2.00 B727,2013-04-12 17:12:00,
2013-04-12 11:17:00,46.9,27.2,30.16,North,355,7.0,10.0,46,0.00,,,0.00,237,LWC V2.00 B727,2013-04-12 17:17:00,
2013-04-12 11:22:00,46.3,27.7,30.16,NNW,348,4.0,5.0,48,0.00,,,0.00,162,LWC V2.00 B727,2013-04-12 17:22:00,
2013-04-12 11:27:00,46.1,28.5,30.16,SW,236,4.0,4.0,50,0.00,,,0.00,1023,LWC V2.00 B727,2013-04-12 17:27:00,
2013-04-12 11:32:00,47.1,28.4,30.15,WSW,240,2.0,10.0,48,0.00,,,0.00,1021,LWC V2.00 B727,2013-04-12 17:32:00,
2013-04-12 11:37:00,48.6,28.8,30.15,NNE,24,5.0,9.0,46,0.00,,,0.00,1062,LWC V2.00 B727,2013-04-12 17:37:00,
2013-04-12 11:42:00,50.1,29.0,30.15,SW,233,4.0,11.0,44,0.00,,,0.00,1151,LWC V2.00 B727,2013-04-12 17:42:00,
2013-04-12 11:47:00,50.7,28.5,30.15,WSW,237,4.0,11.0,42,0.00,,,0.00,1104,LWC V2.00 B727,2013-04-12 17:47:00,
2013-04-12 11:52:00,51.6,28.7,30.15,SSW,213,1.0,9.0,41,0.00,,,0.00,1083,LWC V2.00 B727,2013-04-12 17:52:00,
2013-04-12 11:57:00,52.2,28.6,30.15,West,263,2.0,9.0,40,0.00,,,0.00,1181,LWC V2.00 B727,2013-04-12 17:57:00,
2013-04-12 12:02:00,52.8,30.9,30.14,SW,225,0.0,7.0,43,0.00,,,0.00,1132,LWC V2.00 B727,2013-04-12 18:02:00,
2013-04-12 12:07:00,53.6,29.9,30.14,North,5,8.0,10.0,40,0.00,,,0.00,1095,LWC V2.00 B727,2013-04-12 18:07:00,
2013-04-12 12:12:00,54.0,30.2,30.14,SW,231,3.0,11.0,40,0.00,,,0.00,1194,LWC V2.00 B727,2013-04-12 18:12:00,
2013-04-12 12:17:00,54.0,29.6,30.14,WSW,242,5.0,12.0,39,0.00,,,0.00,1144,LWC V2.00 B727,2013-04-12 18:17:00,
2013-04-12 12:20:00,54.2,29.8,30.14,SW,229,4.0,12.0,39,0.00,,,0.00,1129,LWC V2.00 B727,2013-04-12 18:20:00,
2013-04-12 12:22:00,54.5,30.1,30.14,SW,234,4.0,7.0,39,0.00,,,0.00,1118,LWC V2.00 B727,2013-04-12 18:22:00,
2013-04-12 12:28:00,54.5,28.1,30.14,SW,227,4.0,6.0,36,0.00,,,0.00,257,LWC V2.00 B727,2013-04-12 18:28:00,
2013-04-12 12:30:00,54.5,29.4,30.14,West,273,3.0,12.0,38,0.00,,,0.00,1269,LWC V2.00 B727,2013-04-12 18:30:00,
2013-04-12 12:40:00,53.3,28.3,30.13,WSW,250,4.0,10.0,38,0.00,,,0.00,304,LWC V2.00 B727,2013-04-12 18:40:00,
2013-04-12 12:50:00,53.9,28.9,30.13,WSW,244,3.0,10.0,38,0.00,,,0.00,1176,LWC V2.00 B727,2013-04-12 18:50:00,
2013-04-12 13:00:00,54.6,28.2,30.13,West,265,4.0,11.0,36,0.00,,,0.00,1085,LWC V2.00 B727,2013-04-12 19:00:00,
2013-04-12 13:10:00,54.7,30.2,30.12,WSW,244,5.0,11.0,39,0.00,,,0.00,1113,LWC V2.00 B727,2013-04-12 19:10:00,
2013-04-12 13:28:00,55.6,30.4,30.12,WNW,282,8.0,8.0,38,0.00,,,0.00,1144,LWC V2.00 B727,2013-04-12 19:28:00,
2013-04-12 13:33:00,56.3,29.7,30.12,WSW,250,9.0,11.0,36,0.00,,,0.00,225,LWC V2.00 B727,2013-04-12 19:33:00,
2013-04-12 13:38:00,56.4,28.4,30.12,SW,225,3.0,12.0,34,0.00,,,0.00,1134,LWC V2.00 B727,2013-04-12 19:38:00,
2013-04-12 13:43:00,56.6,29.3,30.12,WSW,250,7.0,9.0,35,0.00,,,0.00,1143,LWC V2.00 B727,2013-04-12 19:43:00,
2013-04-12 13:46:00,57.1,30.4,30.12,SSW,198,2.0,11.0,36,0.00,,,0.00,1130,LWC V2.00 B727,2013-04-12 19:46:00,
2013-04-12 13:51:00,57.6,30.2,30.11,WSW,237,2.0,12.0,35,0.00,,,0.00,1243,LWC V2.00 B727,2013-04-12 19:51:00,
2013-04-12 13:56:00,57.3,29.9,30.11,NNE,19,1.0,9.0,35,0.00,,,0.00,1202,LWC V2.00 B727,2013-04-12 19:56:00,
2013-04-12 14:01:00,57.7,30.9,30.11,WSW,244,4.0,8.0,36,0.00,,,0.00,1243,LWC V2.00 B727,2013-04-12 20:01:00,
2013-04-12 14:06:00,57.4,28.5,30.11,WSW,242,5.0,5.0,33,0.00,,,0.00,283,LWC V2.00 B727,2013-04-12 20:06:00,
2013-04-12 14:11:00,56.8,28.7,30.10,WSW,245,4.0,8.0,34,0.00,,,0.00,315,LWC V2.00 B727,2013-04-12 20:11:00,
2013-04-12 14:16:00,56.3,28.3,30.10,WSW,258,1.0,2.0,34,0.00,,,0.00,281,LWC V2.00 B727,2013-04-12 20:16:00,
2013-04-12 14:21:00,56.4,29.1,30.10,NNE,33,2.0,7.0,35,0.00,,,0.00,1071,LWC V2.00 B727,2013-04-12 20:21:00,
2013-04-12 14:26:00,57.2,29.1,30.10,West,264,8.0,8.0,34,0.00,,,0.00,1078,LWC V2.00 B727,2013-04-12 20:26:00,
2013-04-12 14:31:00,57.9,29.7,30.09,WSW,248,6.0,12.0,34,0.00,,,0.00,1044,LWC V2.00 B727,2013-04-12 20:31:00,
2013-04-12 14:36:00,58.8,29.8,30.09,North,0,1.0,6.0,33,0.00,,,0.00,1071,LWC V2.00 B727,2013-04-12 20:36:00,
2013-04-12 14:41:00,58.1,28.4,30.09,West,260,5.0,8.0,32,0.00,,,0.00,246,LWC V2.00 B727,2013-04-12 20:41:00,
2013-04-12 14:46:00,56.8,28.0,30.08,NNW,336,1.0,4.0,33,0.00,,,0.00,264,LWC V2.00 B727,2013-04-12 20:46:00,
2013-04-12 14:51:00,57.0,28.9,30.08,NNE,26,1.0,8.0,34,0.00,,,0.00,1051,LWC V2.00 B727,2013-04-12 20:51:00,
2013-04-12 14:56:00,57.8,30.3,30.08,SW,231,7.0,7.0,35,0.00,,,0.00,983,LWC V2.00 B727,2013-04-12 20:56:00,
2013-04-12 15:01:00,58.7,29.7,30.08,SW,235,10.0,12.0,33,0.00,,,0.00,983,LWC V2.00 B727,2013-04-12 21:01:00,
2013-04-12 15:06:00,59.0,29.9,30.07,SSE,154,2.0,7.0,33,0.00,,,0.00,972,LWC V2.00 B727,2013-04-12 21:06:00,
2013-04-12 15:11:00,59.6,31.2,30.07,SW,221,8.0,8.0,34,0.00,,,0.00,942,LWC V2.00 B727,2013-04-12 21:11:00,
2013-04-12 15:16:00,60.4,28.8,30.07,WSW,245,7.0,10.0,30,0.00,,,0.00,921,LWC V2.00 B727,2013-04-12 21:16:00,
2013-04-12 15:21:00,60.5,28.1,30.07,NNE,13,2.0,12.0,29,0.00,,,0.00,954,LWC V2.00 B727,2013-04-12 21:21:00,
2013-04-12 15:26:00,59.9,27.6,30.07,WSW,258,2.0,8.0,29,0.00,,,0.00,886,LWC V2.00 B727,2013-04-12 21:26:00,
2013-04-12 15:31:00,59.0,25.9,30.06,North,0,2.0,5.0,28,0.00,,,0.00,232,LWC V2.00 B727,2013-04-12 21:31:00,
2013-04-12 15:36:00,58.4,27.1,30.06,North,0,0.0,1.0,30,0.00,,,0.00,262,LWC V2.00 B727,2013-04-12 21:36:00,
2013-04-12 15:41:00,57.9,27.5,30.06,WSW,254,2.0,5.0,31,0.00,,,0.00,394,LWC V2.00 B727,2013-04-12 21:41:00,
2013-04-12 15:46:00,57.3,25.3,30.06,WSW,246,6.0,6.0,29,0.00,,,0.00,190,LWC V2.00 B727,2013-04-12 21:46:00,
2013-04-12 15:51:00,57.2,25.2,30.06,WSW,241,3.0,12.0,29,0.00,,,0.00,141,LWC V2.00 B727,2013-04-12 21:51:00,
2013-04-12 15:56:00,56.5,24.6,30.06,NW,321,0.0,4.0,29,0.00,,,0.00,313,LWC V2.00 B727,2013-04-12 21:56:00,
2013-04-12 16:01:00,56.6,27.1,30.06,NNW,346,0.0,5.0,32,0.00,,,0.00,812,LWC V2.00 B727,2013-04-12 22:01:00,
2013-04-12 16:06:00,57.9,25.8,30.06,WSW,249,7.0,14.0,29,0.00,,,0.00,796,LWC V2.00 B727,2013-04-12 22:06:00,
2013-04-12 16:11:00,58.6,25.6,30.06,SSW,208,3.0,7.0,28,0.00,,,0.00,149,LWC V2.00 B727,2013-04-12 22:11:00,
2013-04-12 16:16:00,57.4,25.4,30.06,SW,215,1.0,2.0,29,0.00,,,0.00,204,LWC V2.00 B727,2013-04-12 22:16:00,
2013-04-12 16:21:00,57.0,25.1,30.06,WSW,237,5.0,13.0,29,0.00,,,0.00,204,LWC V2.00 B727,2013-04-12 22:21:00,
2013-04-12 16:26:00,56.8,24.9,30.06,WSW,246,7.0,7.0,29,0.00,,,0.00,190,LWC V2.00 B727,2013-04-12 22:26:00,
2013-04-12 16:31:00,56.6,25.5,30.05,SW,231,1.0,6.0,30,0.00,,,0.00,758,LWC V2.00 B727,2013-04-12 22:31:00,
2013-04-12 16:36:00,56.9,25.0,30.06,WSW,257,2.0,6.0,29,0.00,,,0.00,200,LWC V2.00 B727,2013-04-12 22:36:00,
2013-04-12 16:41:00,56.7,26.4,30.05,WSW,240,5.0,7.0,31,0.00,,,0.00,223,LWC V2.00 B727,2013-04-12 22:41:00,
2013-04-12 16:46:00,56.4,25.4,30.05,WSW,256,2.0,7.0,30,0.00,,,0.00,192,LWC V2.00 B727,2013-04-12 22:46:00,
2013-04-12 16:51:00,56.0,23.4,30.06,North,355,3.0,9.0,28,0.00,,,0.00,362,LWC V2.00 B727,2013-04-12 22:51:00,
2013-04-12 16:56:00,55.9,24.1,30.05,North,0,2.0,8.0,29,0.00,,,0.00,624,LWC V2.00 B727,2013-04-12 22:56:00,
2013-04-12 17:01:00,56.5,23.8,30.05,North,355,1.0,5.0,28,0.00,,,0.00,640,LWC V2.00 B727,2013-04-12 23:01:00,
2013-04-12 17:06:00,56.8,24.9,30.05,SW,226,1.0,6.0,29,0.00,,,0.00,121,LWC V2.00 B727,2013-04-12 23:06:00,
2013-04-12 17:11:00,56.4,23.7,30.05,NNW,336,2.0,7.0,28,0.00,,,0.00,564,LWC V2.00 B727,2013-04-12 23:11:00,
2013-04-12 17:16:00,56.6,25.5,30.05,WSW,244,2.0,7.0,30,0.00,,,0.00,533,LWC V2.00 B727,2013-04-12 23:16:00,
2013-04-12 17:21:00,57.5,23.8,30.05,SSW,202,3.0,8.0,27,0.00,,,0.00,492,LWC V2.00 B727,2013-04-12 23:21:00,
2013-04-12 17:26:00,57.8,24.0,30.05,NNW,346,1.0,6.0,27,0.00,,,0.00,482,LWC V2.00 B727,2013-04-12 23:26:00,
2013-04-12 17:31:00,58.0,24.2,30.05,WSW,244,7.0,11.0,27,0.00,,,0.00,452,LWC V2.00 B727,2013-04-12 23:31:00,
2013-04-12 17:36:00,58.2,24.4,30.05,West,260,3.0,7.0,27,0.00,,,0.00,429,LWC V2.00 B727,2013-04-12 23:36:00,
2013-04-12 17:41:00,57.7,21.2,30.05,NNE,28,1.0,11.0,24,0.00,,,0.00,385,LWC V2.00 B727,2013-04-12 23:41:00,
2013-04-12 17:46:00,57.1,23.4,30.05,North,5,1.0,7.0,27,0.00,,,0.00,367,LWC V2.00 B727,2013-04-12 23:46:00,
2013-04-12 17:51:00,56.7,24.8,30.05,North,355,5.0,5.0,29,0.00,,,0.00,255,LWC V2.00 B727,2013-04-12 23:51:00,
2013-04-12 17:56:00,56.4,23.7,30.05,NNW,337,2.0,6.0,28,0.00,,,0.00,315,LWC V2.00 B727,2013-04-12 23:56:00,
2013-04-12 18:01:00,56.3,23.6,30.05,SW,215,3.0,7.0,28,0.00,,,0.00,292,LWC V2.00 B727,2013-04-13 00:01:00,
2013-04-12 18:06:00,56.3,23.6,30.05,WNW,303,3.0,8.0,28,0.00,,,0.00,283,LWC V2.00 B727,2013-04-13 00:06:00,
2013-04-12 18:11:00,56.2,23.5,30.05,NW,315,0.0,2.0,28,0.00,,,0.00,257,LWC V2.00 B727,2013-04-13 00:11:00,
2013-04-12 18:16:00,56.3,23.6,30.05,WSW,255,0.0,4.0,28,0.00,,,0.00,227,LWC V2.00 B727,2013-04-13 00:16:00,
2013-04-12 18:21:00,56.2,23.5,30.05,North,5,4.0,5.0,28,0.00,,,0.00,207,LWC V2.00 B727,2013-04-13 00:21:00,
2013-04-12 18:26:00,55.7,22.2,30.05,NNE,13,4.0,10.0,27,0.00,,,0.00,178,LWC V2.00 B727,2013-04-13 00:26:00,
2013-04-12 18:31:00,55.2,24.3,30.05,NE,44,2.0,2.0,30,0.00,,,0.00,156,LWC V2.00 B727,2013-04-13 00:31:00,
2013-04-12 18:36:00,55.0,22.5,30.05,NNW,344,2.0,10.0,28,0.00,,,0.00,134,LWC V2.00 B727,2013-04-13 00:36:00,
2013-04-12 18:41:00,54.6,23.0,30.05,NNW,348,3.0,3.0,29,0.00,,,0.00,39,LWC V2.00 B727,2013-04-13 00:41:00,
2013-04-12 18:46:00,54.1,21.7,30.05,NNE,15,5.0,10.0,28,0.00,,,0.00,37,LWC V2.00 B727,2013-04-13 00:46:00,
2013-04-12 18:51:00,53.6,22.1,30.06,SW,219,0.0,5.0,29,0.00,,,0.00,33,LWC V2.00 B727,2013-04-13 00:51:00,
2013-04-12 18:56:00,53.2,21.8,30.06,North,5,3.0,5.0,29,0.00,,,0.00,32,LWC V2.00 B727,2013-04-13 00:56:00,
2013-04-12 19:01:00,52.9,22.3,30.06,SW,219,7.0,7.0,30,0.00,,,0.00,30,LWC V2.00 B727,2013-04-13 01:01:00,
2013-04-12 19:06:00,52.6,21.3,30.06,NW,323,2.0,3.0,29,0.00,,,0.00,28,LWC V2.00 B727,2013-04-13 01:06:00,
2013-04-12 19:11:00,52.2,21.7,30.06,WSW,246,1.0,3.0,30,0.00,,,0.00,23,LWC V2.00 B727,2013-04-13 01:11:00,
2013-04-12 19:16:00,51.9,20.7,30.07,SW,226,2.0,6.0,29,0.00,,,0.00,18,LWC V2.00 B727,2013-04-13 01:16:00,
2013-04-12 19:21:00,51.5,21.1,30.06,SSW,194,0.0,3.0,30,0.00,,,0.00,14,LWC V2.00 B727,2013-04-13 01:21:00,
2013-04-12 19:26:00,51.1,20.8,30.07,SSW,194,1.0,2.0,30,0.00,,,0.00,9,LWC V2.00 B727,2013-04-13 01:26:00,
2013-04-12 19:31:00,50.7,20.4,30.07,SW,223,1.0,1.0,30,0.00,,,0.00,5,LWC V2.00 B727,2013-04-13 01:31:00,
2013-04-12 19:36:00,50.3,20.8,30.07,SW,223,1.0,2.0,31,0.00,,,0.00,0,LWC V2.00 B727,2013-04-13 01:36:00,
2013-04-12 19:41:00,49.8,20.4,30.07,SW,223,0.0,1.0,31,0.00,,,0.00,0,LWC V2.00 B727,2013-04-13 01:41:00,
2013-04-12 19:46:00,49.3,20.7,30.08,SW,223,0.0,0.0,32,0.00,,,0.00,0,LWC V2.00 B727,2013-04-13 01:46:00,
2013-04-12 19:51:00,48.8,20.3,30.08,SW,223,0.0,0.0,32,0.00,,,0.00,0,LWC V2.00 B727,2013-04-13 01:51:00,
2013-04-12 19:56:00,48.1,20.4,30.08,SW,223,0.0,2.0,33,0.00,,,0.00,0,LWC V2.00 B727,2013-04-13 01:56:00,
2013-04-12 20:01:00,47.5,20.5,30.08,SW,223,0.0,0.0,34,0.00,,,0.00,0,LWC V2.00 B727,2013-04-13 02:01:00,
2013-04-12 20:06:00,46.7,20.5,30.08,SW,223,0.0,1.0,35,0.00,,,0.00,0,LWC V2.00 B727,2013-04-13 02:06:00,
2013-04-12 20:11:00,45.8,20.4,30.08,SW,223,0.0,0.0,36,0.00,,,0.00,0,LWC V2.00 B727,2013-04-13 02:11:00,
2013-04-12 20:16:00,45.0,21.5,30.09,SW,222,0.0,0.0,39,0.00,,,0.00,0,LWC V2.00 B727,2013-04-13 02:16:00,
2013-04-12 20:21:00,44.1,21.9,30.09,SW,222,0.0,0.0,41,0.00,,,0.00,0,LWC V2.00 B727,2013-04-13 02:21:00,
2013-04-12 20:26:00,43.2,22.2,30.09,SW,222,0.0,0.0,43,0.00,,,0.00,0,LWC V2.00 B727,2013-04-13 02:26:00,
2013-04-12 20:31:00,42.1,21.2,30.10,SW,222,0.0,0.0,43,0.00,,,0.00,0,LWC V2.00 B727,2013-04-13 02:31:00,
2013-04-12 20:36:00,41.3,21.6,30.10,SW,223,0.0,0.0,45,0.00,,,0.00,0,LWC V2.00 B727,2013-04-13 02:36:00,
2013-04-12 20:41:00,40.5,20.9,30.10,SW,222,0.0,0.0,45,0.00,,,0.00,0,LWC V2.00 B727,2013-04-13 02:41:00,
2013-04-12 20:46:00,39.9,20.3,30.11,SW,221,0.0,2.0,45,0.00,,,0.00,0,LWC V2.00 B727,2013-04-13 02:46:00,
2013-04-12 20:51:00,39.6,21.5,30.11,South,188,1.0,1.0,48,0.00,,,0.00,0,LWC V2.00 B727,2013-04-13 02:51:00,
2013-04-12 20:56:00,39.3,20.8,30.11,South,175,1.0,1.0,47,0.00,,,0.00,0,LWC V2.00 B727,2013-04-13 02:56:00,
2013-04-12 21:01:00,39.2,21.2,30.11,SSE,163,0.0,2.0,48,0.00,,,0.00,0,LWC V2.00 B727,2013-04-13 03:01:00,
2013-04-12 21:06:00,39.2,21.7,30.12,SSE,163,0.0,1.0,49,0.00,,,0.00,0,LWC V2.00 B727,2013-04-13 03:06:00,
2013-04-12 21:11:00,39.1,21.6,30.12,SSE,163,0.0,0.0,49,0.00,,,0.00,0,LWC V2.00 B727,2013-04-13 03:11:00,
2013-04-12 21:16:00,39.0,22.0,30.12,SSE,163,0.0,0.0,50,0.00,,,0.00,0,LWC V2.00 B727,2013-04-13 03:16:00,
2013-04-12 21:21:00,38.9,22.3,30.13,SSE,163,0.0,0.0,51,0.00,,,0.00,0,LWC V2.00 B727,2013-04-13 03:21:00,
2013-04-12 21:26:00,38.8,21.8,30.13,SSE,163,0.0,0.0,50,0.00,,,0.00,0,LWC V2.00 B727,2013-04-13 03:26:00,
2013-04-12 21:31:00,38.8,21.8,30.13,SSE,163,0.0,0.0,50,0.00,,,0.00,0,LWC V2.00 B727,2013-04-13 03:31:00,
2013-04-12 21:36:00,38.7,21.7,30.13,SSE,163,0.0,0.0,50,0.00,,,0.00,0,LWC V2.00 B727,2013-04-13 03:36:00,
2013-04-12 21:41:00,38.6,21.6,30.14,SSE,163,0.0,1.0,50,0.00,,,0.00,0,LWC V2.00 B727,2013-04-13 03:41:00,
2013-04-12 21:46:00,38.4,21.4,30.14,SSE,164,2.0,2.0,50,0.00,,,0.00,0,LWC V2.00 B727,2013-04-13 03:46:00,
2013-04-12 21:51:00,38.3,21.3,30.14,SSE,164,1.0,2.0,50,0.00,,,0.00,0,LWC V2.00 B727,2013-04-13 03:51:00,
2013-04-12 21:56:00,38.1,21.1,30.14,SSE,164,1.0,3.0,50,0.00,,,0.00,0,LWC V2.00 B727,2013-04-13 03:56:00,
2013-04-12 22:00:00,38.0,21.5,30.15,SSE,163,1.0,3.0,51,0.00,,,0.00,0,LWC V2.00 B727,2013-04-13 04:00:00,
2013-04-12 22:01:00,38.0,21.5,30.14,SSE,163,1.0,3.0,51,0.00,,,0.00,0,LWC V2.00 B727,2013-04-13 04:01:00,
2013-04-12 22:06:00,38.0,21.5,30.15,SSE,163,1.0,4.0,51,0.00,,,0.00,0,LWC V2.00 B727,2013-04-13 04:06:00,
2013-04-12 22:11:00,37.7,22.1,30.15,SE,126,1.0,2.0,53,0.00,,,0.00,0,LWC V2.00 B727,2013-04-13 04:11:00,
2013-04-12 22:16:00,37.3,21.8,30.16,SE,145,0.0,1.0,53,0.00,,,0.00,0,LWC V2.00 B727,2013-04-13 04:16:00,
2013-04-12 22:21:00,37.1,21.6,30.16,SSE,148,2.0,3.0,53,0.00,,,0.00,0,LWC V2.00 B727,2013-04-13 04:21:00,
2013-04-12 22:26:00,37.0,21.5,30.16,SSE,154,1.0,2.0,53,0.00,,,0.00,0,LWC V2.00 B727,2013-04-13 04:26:00,
2013-04-12 22:31:00,36.8,21.3,30.16,SSE,148,2.0,3.0,53,0.00,,,0.00,0,LWC V2.00 B727,2013-04-13 04:31:00,
2013-04-12 22:36:00,36.6,21.1,30.16,SSE,148,2.0,4.0,53,0.00,,,0.00,0,LWC V2.00 B727,2013-04-13 04:36:00,
2013-04-12 22:41:00,36.5,21.0,30.16,SSE,164,2.0,5.0,53,0.00,,,0.00,0,LWC V2.00 B727,2013-04-13 04:41:00,
2013-04-12 22:46:00,36.4,20.9,30.17,SSE,165,2.0,4.0,53,0.00,,,0.00,0,LWC V2.00 B727,2013-04-13 04:46:00,
2013-04-12 22:51:00,36.4,20.9,30.16,SSE,154,3.0,5.0,53,0.00,,,0.00,0,LWC V2.00 B727,2013-04-13 04:51:00,
2013-04-12 22:56:00,36.4,21.4,30.17,South,171,0.0,3.0,54,0.00,,,0.00,0,LWC V2.00 B727,2013-04-13 04:56:00,
2013-04-12 23:01:00,36.2,21.2,30.17,South,171,2.0,4.0,54,0.00,,,0.00,0,LWC V2.00 B727,2013-04-13 05:01:00,
2013-04-12 23:06:00,36.0,21.0,30.17,SSE,167,4.0,5.0,54,0.00,,,0.00,0,LWC V2.00 B727,2013-04-13 05:06:00,
2013-04-12 23:11:00,35.9,20.9,30.17,South,177,3.0,7.0,54,0.00,,,0.00,0,LWC V2.00 B727,2013-04-13 05:11:00,
2013-04-12 23:16:00,35.9,20.5,30.17,SSE,165,4.0,5.0,53,0.00,,,0.00,0,LWC V2.00 B727,2013-04-13 05:16:00,
2013-04-12 23:21:00,36.0,20.5,30.17,SSE,156,2.0,6.0,53,0.00,,,0.00,0,LWC V2.00 B727,2013-04-13 05:21:00,
2013-04-12 23:26:00,36.1,20.6,30.17,SSE,157,4.0,5.0,53,0.00,,,0.00,0,LWC V2.00 B727,2013-04-13 05:26:00,
2013-04-12 23:31:00,36.2,20.7,30.17,SSE,149,1.0,5.0,53,0.00,,,0.00,0,LWC V2.00 B727,2013-04-13 05:31:00,
2013-04-12 23:36:00,36.1,20.6,30.17,South,182,4.0,6.0,53,0.00,,,0.00,0,LWC V2.00 B727,2013-04-13 05:36:00,
2013-04-12 23:41:00,36.1,20.6,30.17,South,173,2.0,4.0,53,0.00,,,0.00,0,LWC V2.00 B727,2013-04-13 05:41:00,
2013-04-12 23:46:00,35.9,20.5,30.18,SSE,165,2.0,5.0,53,0.00,,,0.00,0,LWC V2.00 B727,2013-04-13 05:46:00,
2013-04-12 23:51:00,35.9,20.5,30.18,SE,141,1.0,4.0,53,0.00,,,0.00,0,LWC V2.00 B727,2013-04-13 05:51:00,
2013-04-12 23:56:00,35.9,20.5,30.17,SE,145,2.0,4.0,53,0.00,,,0.00,0,LWC V2.00 B727,2013-04-13 05:56:00,